createdAt,value
2022-12-20T00:01:00.301Z,101399.14
2022-12-20T00:02:04.905Z,101396.24
2022-12-20T00:03:09.713Z,101402.52
2022-12-20T00:04:14.087Z,101398.35
2022-12-20T00:05:18.344Z,101405.75
2022-12-20T00:06:22.603Z,101405.48
2022-12-20T00:07:26.899Z,101404.84
2022-12-20T00:08:33.438Z,101405.48
2022-12-20T00:09:37.687Z,101404.84
2022-12-20T00:10:41.934Z,101397.45
2022-12-20T00:11:46.228Z,101398.2
2022-12-20T00:12:52.743Z,101399.68
2022-12-20T00:13:56.973Z,101401.73
2022-12-20T00:15:01.231Z,101403.98
2022-12-20T00:16:05.467Z,101404.89
2022-12-20T00:17:09.734Z,101406.86
2022-12-20T00:18:14.167Z,101400.95
2022-12-20T00:19:18.614Z,101398.7
2022-12-20T00:20:22.902Z,101402.36
2022-12-20T00:21:29.528Z,101395.67
2022-12-20T00:22:33.768Z,101397.13
2022-12-20T00:23:38.055Z,101391.13
2022-12-20T00:24:42.345Z,101382.55
2022-12-20T00:25:46.666Z,101385.45
2022-12-20T00:26:50.927Z,101383.98
2022-12-20T00:27:55.204Z,101389.95
2022-12-20T00:28:59.480Z,101378.55
2022-12-20T00:30:03.801Z,101384.24
2022-12-20T00:31:08.146Z,101375.5
2022-12-20T00:32:12.599Z,101374.8
2022-12-20T00:33:16.863Z,101382.7
2022-12-20T00:34:21.123Z,101376.15
2022-12-20T00:35:25.382Z,101374.52
2022-12-20T00:36:29.648Z,101368.31
2022-12-20T00:37:33.955Z,101369.59
2022-12-20T00:38:38.240Z,101375.78
2022-12-20T00:39:42.515Z,101380.16
2022-12-20T00:40:46.798Z,101382.7
2022-12-20T00:41:51.072Z,101384.58
2022-12-20T00:42:55.317Z,101383.19
2022-12-20T00:43:59.623Z,101388.13
2022-12-20T00:45:03.920Z,101389.8
2022-12-20T00:46:08.144Z,101387.47
2022-12-20T00:47:12.669Z,101390.38
2022-12-20T00:48:17.045Z,101387.88
2022-12-20T00:49:21.328Z,101385.83
2022-12-20T00:50:25.582Z,101390.06
2022-12-20T00:51:29.828Z,101395.47
2022-12-20T00:52:34.174Z,101391.28
2022-12-20T00:53:38.422Z,101384.85
2022-12-20T00:54:42.741Z,101377.27
2022-12-20T00:55:47.022Z,101377.47
2022-12-20T00:56:51.271Z,101382.27
2022-12-20T00:57:55.542Z,101382.19
2022-12-20T00:58:59.850Z,101387.25
2022-12-20T01:00:04.195Z,101386.41
2022-12-20T01:01:10.852Z,101387.27
2022-12-20T01:02:15.617Z,101377.39
2022-12-20T01:03:20.706Z,101380.4
2022-12-20T01:04:25.444Z,101378.44
2022-12-20T01:05:29.773Z,101374.57
2022-12-20T01:06:34.297Z,101382.87
2022-12-20T01:07:39.573Z,101375.89
2022-12-20T01:08:43.872Z,101374.91
2022-12-20T01:09:48.130Z,101375.98
2022-12-20T01:10:52.382Z,101370.12
2022-12-20T01:11:56.646Z,101379.99
2022-12-20T01:13:00.897Z,101373.3
2022-12-20T01:14:05.116Z,101375.55
2022-12-20T01:15:09.457Z,101376.54
2022-12-20T01:16:14.329Z,101373.35
2022-12-20T01:17:18.682Z,101376.83
2022-12-20T01:18:22.947Z,101372.94
2022-12-20T01:19:27.222Z,101380.28
2022-12-20T01:20:31.506Z,101372.32
2022-12-20T01:21:35.782Z,101373.78
2022-12-20T01:22:48.107Z,101364.12
2022-12-20T01:23:52.386Z,101371.16
2022-12-20T01:24:56.637Z,101365.81
2022-12-20T01:26:00.956Z,101372.44
2022-12-20T01:27:05.225Z,101372.8
2022-12-20T01:28:09.512Z,101369
2022-12-20T01:29:13.883Z,101365.75
2022-12-20T01:30:18.113Z,101357.94
2022-12-20T01:31:22.487Z,101356.88
2022-12-20T01:32:26.955Z,101356.1
2022-12-20T01:33:31.201Z,101354.84
2022-12-20T01:34:35.451Z,101347.72
2022-12-20T01:35:39.742Z,101344.76
2022-12-20T01:36:44.017Z,101345.91
2022-12-20T01:37:48.304Z,101347.52
2022-12-20T01:38:52.564Z,101340.84
2022-12-20T01:39:56.841Z,101337.88
2022-12-20T01:41:01.131Z,101344.57
2022-12-20T01:42:05.398Z,101338.36
2022-12-20T01:43:09.637Z,101340.12
2022-12-20T01:44:13.892Z,101338.91
2022-12-20T01:45:18.205Z,101336.3
2022-12-20T01:46:22.713Z,101334.54
2022-12-20T01:47:27.079Z,101338.43
2022-12-20T01:48:31.375Z,101331.47
2022-12-20T01:49:35.641Z,101339.5
2022-12-20T01:50:39.942Z,101343.52
2022-12-20T01:51:44.177Z,101333.34
2022-12-20T01:52:48.481Z,101336.3
2022-12-20T01:53:52.772Z,101335.32
2022-12-20T01:54:57.062Z,101327.77
2022-12-20T01:56:02.440Z,101317.7
2022-12-20T01:57:06.762Z,101315.67
2022-12-20T01:58:11.018Z,101315.73
2022-12-20T01:59:15.355Z,101316
2022-12-20T02:00:19.924Z,101315.74
2022-12-20T02:01:24.458Z,101313.98
2022-12-20T02:02:29.407Z,101320.52
2022-12-20T02:03:34.040Z,101312.85
2022-12-20T02:04:38.391Z,101308.2
2022-12-20T02:05:42.711Z,101304.67
2022-12-20T02:06:47.017Z,101303.06
2022-12-20T02:07:51.283Z,101300.66
2022-12-20T02:08:55.845Z,101304.2
2022-12-20T02:10:00.139Z,101302.2
2022-12-20T02:11:04.391Z,101300.23
2022-12-20T02:12:08.663Z,101298.35
2022-12-20T02:13:13.227Z,101309.88
2022-12-20T02:14:17.495Z,101301.15
2022-12-20T02:15:21.735Z,101298.89
2022-12-20T02:16:26.178Z,101300.09
2022-12-20T02:17:30.620Z,101300.44
2022-12-20T02:18:34.870Z,101300.8
2022-12-20T02:19:39.110Z,101297.7
2022-12-20T02:20:43.347Z,101300.95
2022-12-20T02:21:47.632Z,101301.94
2022-12-20T02:22:51.892Z,101301.42
2022-12-20T02:23:56.153Z,101301.72
2022-12-20T02:25:00.384Z,101302.77
2022-12-20T02:26:04.772Z,101306.64
2022-12-20T02:27:09.063Z,101306.85
2022-12-20T02:28:13.323Z,101302.69
2022-12-20T02:29:17.610Z,101302.15
2022-12-20T02:30:21.915Z,101300.11
2022-12-20T02:31:26.369Z,101308.61
2022-12-20T02:32:30.701Z,101308.84
2022-12-20T02:33:34.933Z,101303.88
2022-12-20T02:34:39.225Z,101307.72
2022-12-20T02:35:43.475Z,101307.84
2022-12-20T02:36:47.762Z,101300.31
2022-12-20T02:37:52.011Z,101298.67
2022-12-20T02:38:56.273Z,101301.8
2022-12-20T02:40:00.566Z,101293.05
2022-12-20T02:41:04.884Z,101296.08
2022-12-20T02:42:09.132Z,101293.67
2022-12-20T02:43:13.416Z,101292.35
2022-12-20T02:44:17.678Z,101283.73
2022-12-20T02:45:22.040Z,101293.53
2022-12-20T02:46:26.450Z,101292.08
2022-12-20T02:47:30.933Z,101296.66
2022-12-20T02:48:35.267Z,101298.77
2022-12-20T02:49:39.603Z,101294.13
2022-12-20T02:50:43.856Z,101303.61
2022-12-20T02:51:48.162Z,101298.69
2022-12-20T02:52:52.431Z,101296.07
2022-12-20T02:53:56.674Z,101296.41
2022-12-20T02:55:00.911Z,101301.87
2022-12-20T02:56:05.201Z,101306.69
2022-12-20T02:57:09.440Z,101301.58
2022-12-20T02:58:13.689Z,101303.03
2022-12-20T02:59:17.957Z,101301.13
2022-12-20T03:00:22.212Z,101304.03
2022-12-20T03:01:26.703Z,101306.2
2022-12-20T03:02:31.735Z,101301.01
2022-12-20T03:03:36.565Z,101294.37
2022-12-20T03:04:41.017Z,101295.72
2022-12-20T03:05:45.279Z,101292.56
2022-12-20T03:06:49.544Z,101299.31
2022-12-20T03:07:53.827Z,101303.33
2022-12-20T03:08:58.105Z,101294.32
2022-12-20T03:10:02.383Z,101292.39
2022-12-20T03:11:06.619Z,101300.6
2022-12-20T03:12:10.890Z,101299.55
2022-12-20T03:13:15.195Z,101291.59
2022-12-20T03:14:19.499Z,101299.14
2022-12-20T03:15:23.826Z,101303.78
2022-12-20T03:16:28.201Z,101298.49
2022-12-20T03:17:33.343Z,101298.34
2022-12-20T03:18:37.638Z,101298.69
2022-12-20T03:19:42.986Z,101298.09
2022-12-20T03:20:47.273Z,101306
2022-12-20T03:21:51.547Z,101294.66
2022-12-20T03:22:55.793Z,101294.59
2022-12-20T03:24:00.090Z,101296.34
2022-12-20T03:25:04.374Z,101298.22
2022-12-20T03:26:08.783Z,101301.87
2022-12-20T03:27:13.152Z,101295.94
2022-12-20T03:28:17.417Z,101301.29
2022-12-20T03:29:21.705Z,101302.56
2022-12-20T03:30:25.945Z,101300.94
2022-12-20T03:31:30.434Z,101299.83
2022-12-20T03:32:34.845Z,101293.71
2022-12-20T03:33:39.091Z,101294.4
2022-12-20T03:34:43.357Z,101292.08
2022-12-20T03:35:47.598Z,101291.09
2022-12-20T03:36:51.865Z,101292.08
2022-12-20T03:37:56.177Z,101290.33
2022-12-20T03:39:00.454Z,101288.06
2022-12-20T03:40:04.727Z,101291.31
2022-12-20T03:41:08.988Z,101292.7
2022-12-20T03:42:13.242Z,101289.11
2022-12-20T03:43:17.493Z,101287.77
2022-12-20T03:44:21.966Z,101294.34
2022-12-20T03:45:26.438Z,101282.78
2022-12-20T03:46:30.872Z,101279.27
2022-12-20T03:47:35.651Z,101288.55
2022-12-20T03:48:39.935Z,101290.64
2022-12-20T03:49:44.235Z,101295.63
2022-12-20T03:50:48.508Z,101294.86
2022-12-20T03:51:52.756Z,101298.88
2022-12-20T03:52:57.008Z,101295.84
2022-12-20T03:54:01.315Z,101289.22
2022-12-20T03:55:05.789Z,101287.47
2022-12-20T03:56:10.036Z,101290.87
2022-12-20T03:57:14.314Z,101290.72
2022-12-20T03:58:18.677Z,101289.73
2022-12-20T03:59:22.966Z,101294.37
2022-12-20T04:00:27.238Z,101296.97
2022-12-20T04:01:31.810Z,101300.23
2022-12-20T04:02:36.833Z,101299.81
2022-12-20T04:03:41.687Z,101299.25
2022-12-20T04:04:46.080Z,101293.47
2022-12-20T04:05:50.353Z,101289.09
2022-12-20T04:06:54.887Z,101296.28
2022-12-20T04:07:59.162Z,101293.66
2022-12-20T04:09:03.487Z,101295.22
2022-12-20T04:10:07.739Z,101292.19
2022-12-20T04:11:12.029Z,101285.44
2022-12-20T04:12:16.287Z,101289.09
2022-12-20T04:13:20.556Z,101294.66
2022-12-20T04:14:24.852Z,101293.95
2022-12-20T04:15:29.283Z,101292.81
2022-12-20T04:16:33.962Z,101296.26
2022-12-20T04:17:38.382Z,101297.32
2022-12-20T04:18:42.662Z,101292.75
2022-12-20T04:19:46.945Z,101292.45
2022-12-20T04:20:51.179Z,101300.36
2022-12-20T04:22:05.345Z,101300.48
2022-12-20T04:23:10.338Z,101299.64
2022-12-20T04:24:14.634Z,101297.23
2022-12-20T04:25:18.927Z,101303.03
2022-12-20T04:26:23.148Z,101298.52
2022-12-20T04:27:27.408Z,101309.42
2022-12-20T04:28:31.683Z,101303.78
2022-12-20T04:29:35.916Z,101305.69
2022-12-20T04:30:40.173Z,101306.19
2022-12-20T04:31:44.529Z,101295.14
2022-12-20T04:32:48.926Z,101301.61
2022-12-20T04:33:53.229Z,101300.48
2022-12-20T04:34:57.580Z,101304.7
2022-12-20T04:36:01.840Z,101303.07
2022-12-20T04:37:06.124Z,101297.81
2022-12-20T04:38:10.366Z,101300.84
2022-12-20T04:39:14.619Z,101302.8
2022-12-20T04:40:18.890Z,101310.73
2022-12-20T04:41:23.726Z,101308.21
2022-12-20T04:42:27.965Z,101317.63
2022-12-20T04:43:32.292Z,101324.31
2022-12-20T04:44:36.549Z,101321.08
2022-12-20T04:45:41.251Z,101314.19
2022-12-20T04:46:45.595Z,101319.38
2022-12-20T04:47:50.072Z,101312.94
2022-12-20T04:49:00.471Z,101317.58
2022-12-20T04:50:04.776Z,101309.91
2022-12-20T04:51:09.125Z,101306.81
2022-12-20T04:52:13.664Z,101305.54
2022-12-20T04:53:17.918Z,101307.8
2022-12-20T04:54:22.237Z,101308.09
2022-12-20T04:55:26.467Z,101311.41
2022-12-20T04:56:30.803Z,101309.57
2022-12-20T04:57:35.114Z,101312.3
2022-12-20T04:58:39.399Z,101313.46
2022-12-20T04:59:43.636Z,101311.34
2022-12-20T05:00:47.905Z,101312.55
2022-12-20T05:01:52.453Z,101311.47
2022-12-20T05:02:57.319Z,101304.86
2022-12-20T05:04:02.166Z,101309.61
2022-12-20T05:05:06.571Z,101302.48
2022-12-20T05:06:10.906Z,101301.94
2022-12-20T05:07:15.189Z,101301.67
2022-12-20T05:08:19.424Z,101293.64
2022-12-20T05:09:23.700Z,101299.27
2022-12-20T05:10:27.974Z,101297.95
2022-12-20T05:11:32.250Z,101293.78
2022-12-20T05:12:36.565Z,101294.4
2022-12-20T05:13:40.865Z,101297.72
2022-12-20T05:14:45.133Z,101292.97
2022-12-20T05:15:49.467Z,101296.28
2022-12-20T05:16:53.812Z,101291.4
2022-12-20T05:17:58.058Z,101282.48
2022-12-20T05:19:02.332Z,101288.77
2022-12-20T05:20:06.633Z,101282.38
2022-12-20T05:21:10.885Z,101281.97
2022-12-20T05:22:15.167Z,101283.36
2022-12-20T05:23:19.538Z,101279.12
2022-12-20T05:24:23.806Z,101280.39
2022-12-20T05:25:28.062Z,101282.43
2022-12-20T05:26:32.352Z,101282.97
2022-12-20T05:27:36.659Z,101277.47
2022-12-20T05:28:40.930Z,101271.47
2022-12-20T05:29:45.162Z,101276.53
2022-12-20T05:30:49.414Z,101276.14
2022-12-20T05:31:53.924Z,101274.9
2022-12-20T05:32:58.296Z,101274.09
2022-12-20T05:34:02.586Z,101274.95
2022-12-20T05:35:06.906Z,101273.38
2022-12-20T05:36:11.153Z,101272.8
2022-12-20T05:37:15.428Z,101266.98
2022-12-20T05:38:22.681Z,101269.48
2022-12-20T05:39:26.931Z,101269.89
2022-12-20T05:40:31.182Z,101276.36
2022-12-20T05:41:35.457Z,101269.49
2022-12-20T05:42:39.779Z,101271.08
2022-12-20T05:43:44.061Z,101266.3
2022-12-20T05:44:48.341Z,101269.84
2022-12-20T05:45:52.636Z,101271.43
2022-12-20T05:46:57.113Z,101269.09
2022-12-20T05:48:01.496Z,101270
2022-12-20T05:49:05.786Z,101270.3
2022-12-20T05:50:18.865Z,101270.38
2022-12-20T05:51:23.545Z,101273.47
2022-12-20T05:52:27.785Z,101272.58
2022-12-20T05:53:32.147Z,101277.84
2022-12-20T05:54:36.423Z,101280.8
2022-12-20T05:55:40.706Z,101272.41
2022-12-20T05:56:44.960Z,101273.12
2022-12-20T05:57:49.230Z,101272.58
2022-12-20T05:58:53.542Z,101277.49
2022-12-20T05:59:57.825Z,101275.09
2022-12-20T06:01:02.065Z,101276.84
2022-12-20T06:02:06.504Z,101275.39
2022-12-20T06:03:11.357Z,101282.03
2022-12-20T06:04:16.011Z,101280.05
2022-12-20T06:05:20.354Z,101287.75
2022-12-20T06:06:24.618Z,101295.14
2022-12-20T06:07:28.953Z,101290
2022-12-20T06:08:33.254Z,101288.89
2022-12-20T06:09:37.501Z,101277.13
2022-12-20T06:10:41.781Z,101285.68
2022-12-20T06:11:46.059Z,101281.79
2022-12-20T06:12:50.311Z,101287.31
2022-12-20T06:13:54.577Z,101290.77
2022-12-20T06:14:58.819Z,101290.48
2022-12-20T06:16:03.272Z,101297.42
2022-12-20T06:17:07.654Z,101295.89
2022-12-20T06:18:11.967Z,101293.85
2022-12-20T06:19:22.349Z,101298.1
2022-12-20T06:20:26.611Z,101292.11
2022-12-20T06:21:30.875Z,101303.05
2022-12-20T06:22:35.150Z,101302.48
2022-12-20T06:23:39.412Z,101308.48
2022-12-20T06:24:49.122Z,101297.16
2022-12-20T06:25:53.403Z,101295.83
2022-12-20T06:26:57.697Z,101301.77
2022-12-20T06:28:02.008Z,101292.58
2022-12-20T06:29:06.266Z,101292.87
2022-12-20T06:30:10.579Z,101299.73
2022-12-20T06:31:14.894Z,101301.29
2022-12-20T06:32:19.331Z,101299.6
2022-12-20T06:33:23.635Z,101294.81
2022-12-20T06:34:27.891Z,101285.63
2022-12-20T06:35:32.144Z,101287.42
2022-12-20T06:36:36.519Z,101287.89
2022-12-20T06:37:40.805Z,101283.53
2022-12-20T06:38:45.121Z,101285.79
2022-12-20T06:39:49.392Z,101288.53
2022-12-20T06:40:53.695Z,101291.22
2022-12-20T06:41:57.930Z,101292.08
2022-12-20T06:43:02.222Z,101293.41
2022-12-20T06:44:06.482Z,101293.32
2022-12-20T06:45:10.755Z,101289.65
2022-12-20T06:46:15.215Z,101292.61
2022-12-20T06:47:19.654Z,101296
2022-12-20T06:48:23.903Z,101298.67
2022-12-20T06:49:28.141Z,101300.94
2022-12-20T06:50:32.399Z,101305.44
2022-12-20T06:51:36.669Z,101302.7
2022-12-20T06:52:40.935Z,101303.75
2022-12-20T06:53:45.259Z,101297.98
2022-12-20T06:54:49.539Z,101303.91
2022-12-20T06:55:53.885Z,101294.17
2022-12-20T06:56:58.141Z,101298.67
2022-12-20T06:58:02.431Z,101303.2
2022-12-20T06:59:06.679Z,101300.24
2022-12-20T07:00:10.946Z,101295.45
2022-12-20T07:01:15.370Z,101292.77
2022-12-20T07:02:20.139Z,101295.17
2022-12-20T07:03:25.055Z,101288.63
2022-12-20T07:04:29.644Z,101284.16
2022-12-20T07:05:33.931Z,101283.91
2022-12-20T07:06:38.189Z,101289.39
2022-12-20T07:07:46.408Z,101294.27
2022-12-20T07:08:50.766Z,101294.05
2022-12-20T07:09:55.033Z,101294.91
2022-12-20T07:10:59.316Z,101288.63
2022-12-20T07:12:03.589Z,101292.71
2022-12-20T07:13:07.872Z,101293.51
2022-12-20T07:14:12.649Z,101297.84
2022-12-20T07:15:17.056Z,101292.94
2022-12-20T07:16:21.515Z,101299.48
2022-12-20T07:17:27.028Z,101295.11
2022-12-20T07:18:31.279Z,101299.09
2022-12-20T07:19:35.763Z,101302.53
2022-12-20T07:20:41.153Z,101300.55
2022-12-20T07:21:45.407Z,101304.47
2022-12-20T07:22:49.702Z,101299.93
2022-12-20T07:23:53.993Z,101300.63
2022-12-20T07:24:58.269Z,101302.78
2022-12-20T07:26:02.535Z,101300.67
2022-12-20T07:27:06.804Z,101298.04
2022-12-20T07:28:11.137Z,101302.25
2022-12-20T07:29:17.171Z,101287.73
2022-12-20T07:30:21.447Z,101289.9
2022-12-20T07:31:27.008Z,101291.69
2022-12-20T07:32:31.370Z,101293.44
2022-12-20T07:33:35.747Z,101291.88
2022-12-20T07:34:40.316Z,101294.45
2022-12-20T07:35:47.259Z,101295.85
2022-12-20T07:36:58.063Z,101294.09
2022-12-20T07:38:02.300Z,101295.25
2022-12-20T07:39:06.570Z,101294.33
2022-12-20T07:40:10.854Z,101299.81
2022-12-20T07:41:15.167Z,101311.86
2022-12-20T07:42:19.461Z,101304.94
2022-12-20T07:43:23.766Z,101309.02
2022-12-20T07:44:28.035Z,101302.13
2022-12-20T07:45:32.539Z,101304.11
2022-12-20T07:46:37.018Z,101305.17
2022-12-20T07:47:41.479Z,101297.64
2022-12-20T07:48:45.846Z,101308.14
2022-12-20T07:49:50.299Z,101302.17
2022-12-20T07:50:54.573Z,101301.03
2022-12-20T07:51:58.853Z,101304.51
2022-12-20T07:53:03.126Z,101301.03
2022-12-20T07:54:07.393Z,101299.44
2022-12-20T07:55:11.745Z,101295.95
2022-12-20T07:56:16.023Z,101299.08
2022-12-20T07:57:20.773Z,101293.5
2022-12-20T07:58:25.156Z,101284.47
2022-12-20T07:59:29.461Z,101280.45
2022-12-20T08:00:33.783Z,101288.78
2022-12-20T08:01:39.559Z,101295.48
2022-12-20T08:02:44.817Z,101294.2
2022-12-20T08:03:49.621Z,101302.42
2022-12-20T08:04:54.063Z,101301.56
2022-12-20T08:05:58.345Z,101301.91
2022-12-20T08:07:02.596Z,101293.92
2022-12-20T08:08:07.156Z,101287.55
2022-12-20T08:09:11.454Z,101288.95
2022-12-20T08:10:15.686Z,101288.7
2022-12-20T08:11:19.964Z,101285.22
2022-12-20T08:12:24.270Z,101285.5
2022-12-20T08:13:30.222Z,101292.97
2022-12-20T08:14:34.479Z,101294.79
2022-12-20T08:15:38.737Z,101287.54
2022-12-20T08:16:43.195Z,101286.68
2022-12-20T08:17:47.588Z,101292.69
2022-12-20T08:18:51.846Z,101296.42
2022-12-20T08:19:56.110Z,101298.22
2022-12-20T08:21:00.399Z,101299.27
2022-12-20T08:22:04.777Z,101300.2
2022-12-20T08:23:09.023Z,101301.13
2022-12-20T08:24:13.334Z,101303.52
2022-12-20T08:25:17.604Z,101303.11
2022-12-20T08:26:21.837Z,101305.16
2022-12-20T08:27:26.178Z,101302.36
2022-12-20T08:28:30.448Z,101299.88
2022-12-20T08:29:34.907Z,101303.3
2022-12-20T08:30:39.430Z,101301.67
2022-12-20T08:31:50.982Z,101299.56
2022-12-20T08:32:55.399Z,101295.55
2022-12-20T08:33:59.638Z,101296.84
2022-12-20T08:35:03.881Z,101296.84
2022-12-20T08:36:09.308Z,101297.81
2022-12-20T08:37:16.281Z,101294.56
2022-12-20T08:38:20.607Z,101298.24
2022-12-20T08:39:24.852Z,101297.83
2022-12-20T08:40:29.180Z,101298.56
2022-12-20T08:41:33.483Z,101295.89
2022-12-20T08:42:37.942Z,101294.08
2022-12-20T08:43:42.212Z,101293.86
2022-12-20T08:44:46.468Z,101290.98
2022-12-20T08:45:50.802Z,101288.18
2022-12-20T08:46:55.089Z,101285.28
2022-12-20T08:47:59.378Z,101291.85
2022-12-20T08:49:03.652Z,101285.38
2022-12-20T08:50:07.928Z,101285.66
2022-12-20T08:51:12.383Z,101278.11
2022-12-20T08:52:16.799Z,101274.59
2022-12-20T08:53:21.103Z,101279.89
2022-12-20T08:54:25.374Z,101277.21
2022-12-20T08:55:30.679Z,101275.65
2022-12-20T08:56:34.935Z,101279.38
2022-12-20T08:57:39.205Z,101282.19
2022-12-20T08:58:43.546Z,101281.37
2022-12-20T08:59:47.835Z,101278.05
2022-12-20T09:00:52.073Z,101281.8
2022-12-20T09:01:56.563Z,101279.88
2022-12-20T09:03:01.666Z,101279.8
2022-12-20T09:04:06.640Z,101273.7
2022-12-20T09:05:11.030Z,101272.52
2022-12-20T09:06:15.303Z,101270.83
2022-12-20T09:07:19.568Z,101269.89
2022-12-20T09:08:23.881Z,101269.03
2022-12-20T09:09:28.145Z,101270.61
2022-12-20T09:10:32.490Z,101265.75
2022-12-20T09:11:36.731Z,101266.88
2022-12-20T09:12:40.995Z,101260.41
2022-12-20T09:13:45.929Z,101270.65
2022-12-20T09:14:50.209Z,101269.38
2022-12-20T09:15:54.572Z,101266
2022-12-20T09:16:58.931Z,101262.32
2022-12-20T09:18:03.262Z,101271.64
2022-12-20T09:19:08.022Z,101271.06
2022-12-20T09:20:12.275Z,101264.78
2022-12-20T09:21:16.521Z,101260.92
2022-12-20T09:22:20.963Z,101263.31
2022-12-20T09:23:25.226Z,101268.45
2022-12-20T09:24:29.518Z,101266.86
2022-12-20T09:25:33.783Z,101269.74
2022-12-20T09:26:38.070Z,101263.2
2022-12-20T09:27:42.391Z,101264.03
2022-12-20T09:28:46.689Z,101266.36
2022-12-20T09:29:50.944Z,101265.53
2022-12-20T09:30:55.411Z,101267
2022-12-20T09:31:59.789Z,101260.69
2022-12-20T09:33:11.669Z,101270.55
2022-12-20T09:34:15.930Z,101263.95
2022-12-20T09:35:24.349Z,101265.36
2022-12-20T09:36:28.655Z,101267.34
2022-12-20T09:37:32.945Z,101267.75
2022-12-20T09:38:37.180Z,101265.64
2022-12-20T09:39:41.442Z,101267.91
2022-12-20T09:40:45.712Z,101267.91
2022-12-20T09:41:50.100Z,101262.2
2022-12-20T09:42:54.550Z,101266.35
2022-12-20T09:43:58.840Z,101262.2
2022-12-20T09:45:03.107Z,101268.27
2022-12-20T09:46:07.465Z,101263.39
2022-12-20T09:47:12.467Z,101263.39
2022-12-20T09:48:16.799Z,101254.87
2022-12-20T09:49:21.043Z,101250.63
2022-12-20T09:50:25.419Z,101245.55
2022-12-20T09:51:29.700Z,101240.77
2022-12-20T09:52:33.971Z,101241.88
2022-12-20T09:53:38.223Z,101252.18
2022-12-20T09:54:42.480Z,101257.66
2022-12-20T09:55:46.747Z,101253.95
2022-12-20T09:56:51.033Z,101256.03
2022-12-20T09:57:55.410Z,101246.94
2022-12-20T09:58:59.685Z,101241.75
2022-12-20T10:00:03.929Z,101246.13
2022-12-20T10:01:15.137Z,101251.43
2022-12-20T10:03:06.337Z,101256.09
2022-12-20T10:04:14.768Z,101253.22
2022-12-20T10:05:19.893Z,101261.2
2022-12-20T10:06:24.597Z,101258.17
2022-12-20T10:07:28.854Z,101260.5
2022-12-20T10:08:33.176Z,101257.66
2022-12-20T10:09:37.486Z,101261.27
2022-12-20T10:10:42.012Z,101272.17
2022-12-20T10:11:51.519Z,101280.37
2022-12-20T10:12:58.768Z,101271.53
2022-12-20T10:14:03.010Z,101261.8
2022-12-20T10:15:07.256Z,101268.91
2022-12-20T10:16:11.628Z,101269.66
2022-12-20T10:17:15.997Z,101270.89
2022-12-20T10:18:20.323Z,101261.98
2022-12-20T10:19:24.581Z,101271.08
2022-12-20T10:20:28.860Z,101265.35
2022-12-20T10:21:33.256Z,101266.47
2022-12-20T10:22:37.486Z,101262.03
2022-12-20T10:23:41.791Z,101264.7
2022-12-20T10:24:46.027Z,101265.95
2022-12-20T10:25:50.329Z,101264.7
2022-12-20T10:26:54.826Z,101263.66
2022-12-20T10:27:59.071Z,101256.55
2022-12-20T10:29:03.368Z,101260.63
2022-12-20T10:30:07.622Z,101259.64
2022-12-20T10:31:12.086Z,101262.45
2022-12-20T10:32:16.681Z,101258.43
2022-12-20T10:33:20.947Z,101255.91
2022-12-20T10:34:25.893Z,101257.73
2022-12-20T10:35:39.871Z,101261.64
2022-12-20T10:36:44.230Z,101263.55
2022-12-20T10:38:09.054Z,101260.3
2022-12-20T10:39:13.695Z,101264.72
2022-12-20T10:40:17.955Z,101254.35
2022-12-20T10:41:24.213Z,101252.82
2022-12-20T10:42:28.462Z,101250.78
2022-12-20T10:43:32.757Z,101258.95
2022-12-20T10:44:37.069Z,101256.34
2022-12-20T10:45:41.375Z,101262.05
2022-12-20T10:46:50.085Z,101260.01
2022-12-20T10:47:55.517Z,101259.34
2022-12-20T10:48:59.784Z,101255.03
2022-12-20T10:50:04.131Z,101251.24
2022-12-20T10:51:16.886Z,101250.8
2022-12-20T10:52:21.283Z,101247.41
2022-12-20T10:53:26.146Z,101238.27
2022-12-20T10:54:30.424Z,101238.73
2022-12-20T10:55:34.701Z,101236.87
2022-12-20T10:56:39.008Z,101232.19
2022-12-20T10:57:43.254Z,101233.19
2022-12-20T10:58:47.491Z,101239.09
2022-12-20T10:59:51.733Z,101231.27
2022-12-20T11:00:56.084Z,101235.58
2022-12-20T11:02:00.746Z,101238.19
2022-12-20T11:03:05.897Z,101234.3
2022-12-20T11:04:10.922Z,101224.8
2022-12-20T11:05:15.361Z,101228.47
2022-12-20T11:06:19.689Z,101226.14
2022-12-20T11:07:23.990Z,101228.88
2022-12-20T11:08:56.934Z,101233.89
2022-12-20T11:10:04.503Z,101237.04
2022-12-20T11:11:08.860Z,101231.86
2022-12-20T11:12:13.107Z,101235.3
2022-12-20T11:13:17.361Z,101235.53
2022-12-20T11:14:21.617Z,101225.22
2022-12-20T11:15:35.718Z,101232.77
2022-12-20T11:16:41.344Z,101230.45
2022-12-20T11:17:45.758Z,101232.36
2022-12-20T11:18:50.041Z,101226.19
2022-12-20T11:19:57.341Z,101229.14
2022-12-20T11:21:01.584Z,101219.63
2022-12-20T11:22:05.838Z,101218.77
2022-12-20T11:23:10.083Z,101218.7
2022-12-20T11:24:14.361Z,101212.92
2022-12-20T11:25:18.714Z,101212.64
2022-12-20T11:26:22.978Z,101215.63
2022-12-20T11:27:27.294Z,101210.33
2022-12-20T11:28:31.579Z,101203.69
2022-12-20T11:29:35.864Z,101200.31
2022-12-20T11:30:40.131Z,101202.23
2022-12-20T11:31:44.908Z,101192.16
2022-12-20T11:32:50.216Z,101193.31
2022-12-20T11:33:54.541Z,101194.02
2022-12-20T11:34:58.807Z,101194.09
2022-12-20T11:36:03.051Z,101198.34
2022-12-20T11:37:07.333Z,101191.45
2022-12-20T11:38:11.612Z,101181.79
2022-12-20T11:39:15.990Z,101183.61
2022-12-20T11:40:20.407Z,101182.09
2022-12-20T11:41:25.007Z,101181.91
2022-12-20T11:42:30.417Z,101177.25
2022-12-20T11:44:23.724Z,101182.27
2022-12-20T11:45:30.820Z,101185.08
2022-12-20T11:46:35.614Z,101171.91
2022-12-20T11:47:39.968Z,101173.06
2022-12-20T11:48:44.239Z,101183.84
2022-12-20T11:49:48.477Z,101175.05
2022-12-20T11:50:52.786Z,101165.8
2022-12-20T11:51:57.070Z,101177.03
2022-12-20T11:53:01.351Z,101167.88
2022-12-20T11:54:05.623Z,101179.42
2022-12-20T11:55:09.875Z,101173.88
2022-12-20T11:56:14.159Z,101176.76
2022-12-20T11:57:18.408Z,101171.5
2022-12-20T11:58:22.697Z,101172.48
2022-12-20T11:59:28.401Z,101180.59
2022-12-20T12:00:32.708Z,101171.51
2022-12-20T12:01:37.558Z,101174.25
2022-12-20T12:02:43.438Z,101169.75
2022-12-20T12:03:47.899Z,101175.36
2022-12-20T12:04:52.407Z,101170.64
2022-12-20T12:05:56.757Z,101174.58
2022-12-20T12:07:01.074Z,101167.42
2022-12-20T12:08:05.327Z,101170.5
2022-12-20T12:09:09.570Z,101175.69
2022-12-20T12:10:13.858Z,101177.2
2022-12-20T12:12:07.665Z,101175.5
2022-12-20T12:13:13.225Z,101170.36
2022-12-20T12:14:17.478Z,101176.2
2022-12-20T12:15:21.749Z,101172.69
2022-12-20T12:16:26.075Z,101164.55
2022-12-20T12:17:30.581Z,101168.57
2022-12-20T12:18:34.884Z,101169.56
2022-12-20T12:19:39.126Z,101168.32
2022-12-20T12:20:43.405Z,101166.13
2022-12-20T12:21:47.676Z,101169.86
2022-12-20T12:22:52.003Z,101168.34